CheckWX is a tool to help pilots better visualize weather data.  It is not intended as a substitute for an official pre-flight weather briefing.

16:11:21 UTC

KCFV METAR
Coffeyville Municipal Airport
Coffeyville, Kansas, USA
Current

1 hour ago

KCFV 181452Z AUTO 18011G20KT 10SM CLR 14/09 A2987 RMK AO2 SLP115 T01390094 58006
Observed
Oct-18 @ 14:52 UTC
Wind
  • 180° at 11 KTS
  • Gusting to 20 KTS
Visibility
10 SM
Flight Rules
VFR
Cloud Levels
  • Clear skies
Temperature
14°C / 57°F
Dewpoint
C / 48°F
Humidity
72%
Altimeter
29.87" Hg
Pressure
1011.52 hPa
Previous

2 hours ago

KCFV 181352Z AUTO 17008KT 10SM CLR 11/08 A2989 RMK AO2 SLP122 T01060083
Observed
Oct-18 @ 13:52 UTC
Wind
  • 170° at 8 KTS
Visibility
10 SM
Flight Rules
VFR
Cloud Levels
  • Clear skies
Temperature
11°C / 52°F
Dewpoint
C / 46°F
Humidity
82%
Altimeter
29.89" Hg
Pressure
1012.22 hPa
Previous

3 hours ago

KCFV 181252Z AUTO 16006KT 10SM CLR 09/08 A2989 RMK AO2 SLP120 T00890078
Observed
Oct-18 @ 12:52 UTC
Wind
  • 160° at 6 KTS
Visibility
10 SM
Flight Rules
VFR
Cloud Levels
  • Clear skies
Temperature
C / 48°F
Dewpoint
C / 46°F
Humidity
94%
Altimeter
29.89" Hg
Pressure
1012.22 hPa